createdAt,value
2022-10-05T00:00:09.554Z,13.4
2022-10-05T00:03:09.480Z,13.3
2022-10-05T00:06:09.585Z,13.2
2022-10-05T00:09:09.518Z,13.3
2022-10-05T00:12:09.519Z,13.3
2022-10-05T00:15:09.472Z,13.4
2022-10-05T00:18:09.560Z,13.4
2022-10-05T00:21:09.495Z,13.4
2022-10-05T00:24:09.681Z,13.4
2022-10-05T00:27:09.420Z,13.3
2022-10-05T00:30:09.467Z,13.3
2022-10-05T00:33:09.581Z,13.2
2022-10-05T00:36:09.532Z,13.2
2022-10-05T00:39:09.548Z,13.1
2022-10-05T00:42:09.455Z,13.1
2022-10-05T00:45:09.515Z,13.1
2022-10-05T00:48:09.501Z,13.1
2022-10-05T00:51:09.516Z,13.1
2022-10-05T00:54:09.471Z,13
2022-10-05T00:57:09.465Z,13
2022-10-05T01:00:09.467Z,13
2022-10-05T01:03:09.472Z,12.9
2022-10-05T01:06:09.456Z,12.8
2022-10-05T01:09:09.482Z,12.9
2022-10-05T01:12:09.467Z,12.9
2022-10-05T01:15:09.516Z,12.8
2022-10-05T01:18:09.472Z,12.8
2022-10-05T01:21:09.481Z,12.8
2022-10-05T01:24:09.532Z,12.7
2022-10-05T01:27:09.518Z,12.7
2022-10-05T01:30:09.483Z,12.7
2022-10-05T01:33:09.477Z,12.6
2022-10-05T01:36:09.559Z,12.6
2022-10-05T01:39:09.510Z,12.6
2022-10-05T01:42:09.459Z,12.6
2022-10-05T01:45:09.553Z,12.6
2022-10-05T01:48:09.438Z,12.6
2022-10-05T01:51:09.473Z,12.6
2022-10-05T01:54:09.513Z,12.6
2022-10-05T01:57:09.468Z,12.6
2022-10-05T02:00:09.547Z,12.6
2022-10-05T02:03:09.428Z,12.6
2022-10-05T02:06:09.485Z,12.6
2022-10-05T02:09:09.545Z,12.6
2022-10-05T02:12:09.517Z,12.6
2022-10-05T02:15:09.487Z,12.6
2022-10-05T02:18:09.553Z,12.6
2022-10-05T02:21:09.498Z,12.5
2022-10-05T02:24:09.885Z,12.5
2022-10-05T02:27:09.640Z,12.5
2022-10-05T02:30:12.862Z,12.5
2022-10-05T02:33:09.483Z,12.5
2022-10-05T02:36:09.475Z,12.6
2022-10-05T02:39:09.489Z,12.8
2022-10-05T02:42:09.524Z,12.8
2022-10-05T02:45:09.506Z,12.8
2022-10-05T02:48:09.468Z,12.7
2022-10-05T02:51:09.464Z,12.7
2022-10-05T02:54:09.501Z,12.7
2022-10-05T02:57:09.501Z,12.7
2022-10-05T03:00:09.872Z,12.6
2022-10-05T03:03:09.569Z,12.5
2022-10-05T03:06:09.494Z,12.5
2022-10-05T03:09:09.456Z,12.4
2022-10-05T03:12:09.522Z,12.4
2022-10-05T03:15:09.460Z,12.4
2022-10-05T03:18:09.468Z,12.4
2022-10-05T03:21:09.426Z,12.4
2022-10-05T03:24:09.446Z,12.3
2022-10-05T03:27:09.475Z,12.3
2022-10-05T03:30:09.476Z,12.2
2022-10-05T03:33:09.404Z,12.2
2022-10-05T03:36:10.047Z,12.2
2022-10-05T03:39:09.484Z,12.2
2022-10-05T03:42:09.497Z,12.2
2022-10-05T03:45:09.443Z,12.2
2022-10-05T03:48:10.650Z,12.1
2022-10-05T03:51:09.488Z,12.1
2022-10-05T03:54:09.559Z,12.2
2022-10-05T03:57:09.544Z,12.1
2022-10-05T04:00:09.566Z,12.1
2022-10-05T04:03:09.802Z,12.1
2022-10-05T04:06:09.546Z,12.1
2022-10-05T04:09:09.472Z,12.1
2022-10-05T04:12:09.585Z,12.1
2022-10-05T04:15:09.467Z,12
2022-10-05T04:18:09.482Z,12
2022-10-05T04:21:09.483Z,12.1
2022-10-05T04:24:09.460Z,12.1
2022-10-05T04:27:09.439Z,12
2022-10-05T04:30:09.510Z,12.1
2022-10-05T04:33:09.461Z,12.1
2022-10-05T04:36:09.501Z,12.1
2022-10-05T04:39:09.531Z,12.1
2022-10-05T04:42:09.520Z,12.1
2022-10-05T04:45:09.476Z,11.9
2022-10-05T04:48:09.532Z,11.8
2022-10-05T04:51:09.438Z,11.6
2022-10-05T04:54:09.492Z,11.5
2022-10-05T04:57:09.516Z,11.4
2022-10-05T05:00:09.499Z,11.4
2022-10-05T05:03:09.552Z,11.4
2022-10-05T05:06:26.951Z,11.3
2022-10-05T05:09:09.456Z,11.1
2022-10-05T05:12:09.485Z,10.9
2022-10-05T05:15:09.503Z,10.7
2022-10-05T05:18:09.497Z,10.4
2022-10-05T05:21:10.164Z,10.3
2022-10-05T05:24:09.452Z,10.2
2022-10-05T05:27:09.549Z,10.1
2022-10-05T05:30:09.860Z,9.9
2022-10-05T05:33:09.515Z,9.9
2022-10-05T05:36:09.548Z,9.8
2022-10-05T05:39:09.482Z,9.8
2022-10-05T05:42:09.544Z,9.9
2022-10-05T05:45:09.594Z,10.1
2022-10-05T05:48:09.578Z,10.2
2022-10-05T05:51:09.512Z,10.3
2022-10-05T05:54:09.615Z,10.4
2022-10-05T05:57:09.554Z,10.6
2022-10-05T06:00:09.723Z,10.8
2022-10-05T06:03:10.609Z,10.8
2022-10-05T06:06:09.571Z,10.8
2022-10-05T06:09:09.599Z,10.8
2022-10-05T06:12:09.713Z,10.9
2022-10-05T06:15:09.525Z,10.9
2022-10-05T06:18:09.588Z,11
2022-10-05T06:21:09.561Z,11
2022-10-05T06:24:09.516Z,11.1
2022-10-05T06:27:09.500Z,11.2
2022-10-05T06:30:09.620Z,11.3
2022-10-05T06:33:09.576Z,11.5
2022-10-05T06:36:09.479Z,11.6
2022-10-05T06:39:09.663Z,11.8
2022-10-05T06:42:09.509Z,11.9
2022-10-05T06:45:09.580Z,12.2
2022-10-05T06:48:14.563Z,12.4
2022-10-05T06:51:09.571Z,12.6
2022-10-05T06:54:09.539Z,12.8
2022-10-05T06:57:09.509Z,13
2022-10-05T07:00:09.606Z,13.4
2022-10-05T07:03:09.591Z,13.8
2022-10-05T07:06:09.579Z,14.4
2022-10-05T07:09:09.564Z,15.3
2022-10-05T07:12:15.133Z,16.6
2022-10-05T07:15:09.562Z,17.2
2022-10-05T07:18:09.519Z,17.6
2022-10-05T07:21:09.567Z,17.2
2022-10-05T07:24:09.520Z,16.7
2022-10-05T07:27:09.569Z,16.4
2022-10-05T07:30:09.667Z,16.4
2022-10-05T07:33:09.557Z,16.9
2022-10-05T07:36:09.576Z,17.2
2022-10-05T07:39:09.493Z,17.8
2022-10-05T07:42:09.592Z,18.1
2022-10-05T07:45:09.601Z,18.2
2022-10-05T07:48:09.572Z,18.6
2022-10-05T07:51:09.759Z,18.6
2022-10-05T07:54:09.561Z,19.1
2022-10-05T07:57:09.568Z,19.6
2022-10-05T08:00:09.661Z,19.4
2022-10-05T08:03:10.053Z,19.6
2022-10-05T08:06:09.539Z,19.9
2022-10-05T08:09:09.711Z,19.7
2022-10-05T08:12:10.191Z,18.9
2022-10-05T08:15:09.581Z,17.8
2022-10-05T08:18:09.608Z,17.2
2022-10-05T08:21:09.550Z,16.7
2022-10-05T08:24:09.540Z,16.5
2022-10-05T08:27:09.531Z,16.4
2022-10-05T08:30:09.623Z,16.2
2022-10-05T08:33:09.563Z,16
2022-10-05T08:36:09.486Z,15.9
2022-10-05T08:39:09.594Z,15.9
2022-10-05T08:42:09.480Z,16.1
2022-10-05T08:45:09.592Z,17
2022-10-05T08:48:09.752Z,18.4
2022-10-05T08:51:09.588Z,19.6
2022-10-05T08:54:09.555Z,20.4
2022-10-05T08:57:09.491Z,19.9
2022-10-05T09:00:09.689Z,18.7
2022-10-05T09:03:09.853Z,17.6
2022-10-05T09:06:09.565Z,17.3
2022-10-05T09:09:09.585Z,17.8
2022-10-05T09:12:09.587Z,18.7
2022-10-05T09:15:35.547Z,18.9
2022-10-05T09:18:09.564Z,19.2
2022-10-05T09:21:09.610Z,19.8
2022-10-05T09:24:09.626Z,20.1
2022-10-05T09:27:09.492Z,20.7
2022-10-05T09:30:09.726Z,20.9
2022-10-05T09:33:09.589Z,21.1
2022-10-05T09:36:09.519Z,21.6
2022-10-05T09:39:09.574Z,21.9
2022-10-05T09:42:09.711Z,21.8
2022-10-05T09:45:09.551Z,21.4
2022-10-05T09:48:09.650Z,21.4
2022-10-05T09:51:09.525Z,20.9
2022-10-05T09:54:09.532Z,21.2
2022-10-05T09:57:09.582Z,21.5
2022-10-05T10:00:09.963Z,21.9
2022-10-05T10:03:10.431Z,21.9
2022-10-05T10:06:09.548Z,21.9
2022-10-05T10:09:09.593Z,21.4
2022-10-05T10:12:09.546Z,21.6
2022-10-05T10:15:12.117Z,21.8
2022-10-05T10:21:09.558Z,21.9
2022-10-05T10:24:09.644Z,21.6
2022-10-05T10:27:09.553Z,21.4
2022-10-05T10:30:09.706Z,20.8
2022-10-05T10:33:09.555Z,20.8
2022-10-05T10:36:15.806Z,21.1
2022-10-05T10:39:09.592Z,20.9
2022-10-05T10:42:09.538Z,20.9
2022-10-05T10:45:09.505Z,20.7
2022-10-05T10:48:09.704Z,20.1
2022-10-05T10:51:09.520Z,20.1
2022-10-05T10:54:09.533Z,20.6
2022-10-05T10:57:09.566Z,20.3
2022-10-05T11:00:09.708Z,19.8
2022-10-05T11:03:10.074Z,19.5
2022-10-05T11:06:09.536Z,19.6
2022-10-05T11:09:09.609Z,19.7
2022-10-05T11:12:09.554Z,19.7
2022-10-05T11:15:09.547Z,19.2
2022-10-05T11:18:09.547Z,18.6
2022-10-05T11:21:09.509Z,18.3
2022-10-05T11:24:09.545Z,18.1
2022-10-05T11:27:09.627Z,17.8
2022-10-05T11:30:09.723Z,17.8
2022-10-05T11:33:09.526Z,17.7
2022-10-05T11:36:09.585Z,17.5
2022-10-05T11:39:09.490Z,17.5
2022-10-05T11:42:09.565Z,17.6
2022-10-05T11:45:09.592Z,17.8
2022-10-05T11:48:09.718Z,18.2
2022-10-05T11:51:09.588Z,18.6
2022-10-05T11:54:09.546Z,18.7
2022-10-05T11:57:10.735Z,18.6
2022-10-05T12:00:09.602Z,18.7
2022-10-05T12:03:10.423Z,19.2
2022-10-05T12:06:09.566Z,19.1
2022-10-05T12:09:09.565Z,18.8
2022-10-05T12:12:09.594Z,18.9
2022-10-05T12:15:09.514Z,18.9
2022-10-05T12:18:09.618Z,19.3
2022-10-05T12:21:09.543Z,18.8
2022-10-05T12:24:09.783Z,18.6
2022-10-05T12:27:09.523Z,18.4
2022-10-05T12:30:09.814Z,18.3
2022-10-05T12:33:11.369Z,18.1
2022-10-05T12:36:09.529Z,17.9
2022-10-05T12:39:09.518Z,17.9
2022-10-05T12:42:09.570Z,18.1
2022-10-05T12:45:09.541Z,18.1
2022-10-05T12:48:09.541Z,18.1
2022-10-05T12:51:09.590Z,18
2022-10-05T12:54:09.692Z,17.9
2022-10-05T12:57:09.528Z,18.3
2022-10-05T13:00:09.894Z,18.4
2022-10-05T13:03:09.667Z,18.3
2022-10-05T13:06:12.521Z,18.3
2022-10-05T13:09:09.792Z,18.4
2022-10-05T13:12:09.635Z,18.6
2022-10-05T13:15:09.697Z,18.6
2022-10-05T13:18:09.550Z,18.6
2022-10-05T13:21:09.559Z,18.6
2022-10-05T13:24:09.575Z,18.7
2022-10-05T13:27:09.484Z,19
2022-10-05T13:30:09.831Z,19.1
2022-10-05T13:33:09.577Z,18.9
2022-10-05T13:36:09.580Z,18.9
2022-10-05T13:39:09.671Z,18.8
2022-10-05T13:42:09.502Z,18.8
2022-10-05T13:45:09.594Z,18.8
2022-10-05T13:48:09.596Z,18.8
2022-10-05T13:51:09.444Z,19.1
2022-10-05T13:54:09.536Z,19.3
2022-10-05T13:57:09.538Z,19.3
2022-10-05T14:00:10.001Z,19.2
2022-10-05T14:03:09.988Z,19
2022-10-05T14:06:09.594Z,19.1
2022-10-05T14:09:09.624Z,19.2
2022-10-05T14:12:09.577Z,19.3
2022-10-05T14:15:09.549Z,19.3
2022-10-05T14:18:09.629Z,19.3
2022-10-05T14:21:09.543Z,19.6
2022-10-05T14:24:25.794Z,19.5
2022-10-05T14:27:09.494Z,19.5
2022-10-05T14:30:09.732Z,19.6
2022-10-05T14:33:09.492Z,19.6
2022-10-05T14:36:09.529Z,19.8
2022-10-05T14:39:09.570Z,19.6
2022-10-05T14:42:09.722Z,19.8
2022-10-05T14:45:09.505Z,19.9
2022-10-05T14:48:09.596Z,19.8
2022-10-05T14:51:09.555Z,19.8
2022-10-05T14:54:09.686Z,19.9
2022-10-05T14:57:09.563Z,19.8
2022-10-05T15:00:10.185Z,19.6
2022-10-05T15:03:09.461Z,19.6
2022-10-05T15:06:09.544Z,19.9
2022-10-05T15:09:21.168Z,19.6
2022-10-05T15:12:09.517Z,19.4
2022-10-05T15:15:09.538Z,19.5
2022-10-05T15:18:09.472Z,19.4
2022-10-05T15:21:09.573Z,19.2
2022-10-05T15:24:09.530Z,19
2022-10-05T15:27:09.573Z,18.9
2022-10-05T15:30:09.621Z,18.8
2022-10-05T15:33:09.532Z,18.8
2022-10-05T15:36:09.542Z,18.8
2022-10-05T15:39:09.729Z,18.7
2022-10-05T15:42:09.521Z,18.7
2022-10-05T15:45:09.609Z,18.6
2022-10-05T15:48:09.527Z,18.5
2022-10-05T15:51:09.477Z,18.5
2022-10-05T15:54:15.687Z,18.4
2022-10-05T15:57:09.511Z,18.4
2022-10-05T16:00:09.526Z,18.2
2022-10-05T16:03:09.569Z,18.1
2022-10-05T16:06:09.561Z,17.8
2022-10-05T16:09:09.535Z,17.8
2022-10-05T16:12:09.570Z,17.6
2022-10-05T16:15:09.619Z,17.6
2022-10-05T16:18:09.607Z,17.6
2022-10-05T16:21:09.524Z,17.4
2022-10-05T16:24:09.551Z,17
2022-10-05T16:27:09.524Z,16.8
2022-10-05T16:30:09.697Z,16.4
2022-10-05T16:33:09.528Z,16.2
2022-10-05T16:36:09.533Z,15.9
2022-10-05T16:39:09.609Z,15.7
2022-10-05T16:42:09.530Z,15.3
2022-10-05T16:45:09.602Z,15.1
2022-10-05T16:48:09.479Z,14.8
2022-10-05T16:51:09.479Z,14.6
2022-10-05T16:54:09.634Z,14.4
2022-10-05T16:57:09.498Z,14.1
2022-10-05T17:00:16.060Z,13.9
2022-10-05T17:03:09.740Z,13.8
2022-10-05T17:06:09.518Z,13.8
2022-10-05T17:09:09.573Z,13.6
2022-10-05T17:12:09.484Z,13.7
2022-10-05T17:15:09.460Z,13.6
2022-10-05T17:18:09.508Z,13.7
2022-10-05T17:21:09.447Z,13.8
2022-10-05T17:24:09.544Z,14.1
2022-10-05T17:27:09.454Z,14.5
2022-10-05T17:30:09.638Z,14.9
2022-10-05T17:33:09.474Z,15.4
2022-10-05T17:36:09.553Z,15.6
2022-10-05T17:39:09.499Z,15.8
2022-10-05T17:42:09.482Z,16
2022-10-05T17:45:09.506Z,16.3
2022-10-05T17:48:09.501Z,16.5
2022-10-05T17:51:09.545Z,16.6
2022-10-05T17:54:09.550Z,16.7
2022-10-05T17:57:09.454Z,16.9
2022-10-05T18:00:10.140Z,16.9
2022-10-05T18:03:09.852Z,16.9
2022-10-05T18:06:09.520Z,17.1
2022-10-05T18:09:09.508Z,17.2
2022-10-05T18:12:09.535Z,17.1
2022-10-05T18:15:09.596Z,17
2022-10-05T18:18:09.477Z,16.9
2022-10-05T18:21:09.508Z,16.9
2022-10-05T18:24:09.496Z,16.9
2022-10-05T18:27:09.515Z,17.1
2022-10-05T18:30:09.581Z,17.1
2022-10-05T18:33:09.584Z,17.1
2022-10-05T18:36:09.563Z,17
2022-10-05T18:39:09.521Z,17
2022-10-05T18:42:09.522Z,17
2022-10-05T18:45:10.240Z,17.1
2022-10-05T18:48:09.514Z,17.1
2022-10-05T18:51:09.506Z,17.1
2022-10-05T18:54:09.500Z,17.1
2022-10-05T18:57:09.544Z,17.1
2022-10-05T19:00:09.533Z,17.2
2022-10-05T19:03:09.550Z,17.2
2022-10-05T19:06:15.479Z,17.1
2022-10-05T19:09:09.578Z,17.1
2022-10-05T19:12:09.525Z,17
2022-10-05T19:15:09.526Z,17
2022-10-05T19:18:09.486Z,17
2022-10-05T19:21:09.524Z,17
2022-10-05T19:24:09.525Z,17
2022-10-05T19:27:09.438Z,16.9
2022-10-05T19:30:09.531Z,16.9
2022-10-05T19:33:09.459Z,16.9
2022-10-05T19:36:09.535Z,16.9
2022-10-05T19:39:09.498Z,16.8
2022-10-05T19:42:09.556Z,16.8
2022-10-05T19:45:09.475Z,16.8
2022-10-05T19:48:09.525Z,16.8
2022-10-05T19:51:09.651Z,16.8
2022-10-05T19:54:09.603Z,16.8
2022-10-05T19:57:09.448Z,16.7
2022-10-05T20:00:09.552Z,16.7
2022-10-05T20:03:09.832Z,16.7
2022-10-05T20:06:09.493Z,16.7
2022-10-05T20:09:09.431Z,16.8
2022-10-05T20:12:09.474Z,16.8
2022-10-05T20:15:09.539Z,16.8
2022-10-05T20:18:09.569Z,16.8
2022-10-05T20:21:09.501Z,16.7
2022-10-05T20:24:09.553Z,16.7
2022-10-05T20:27:15.214Z,16.6
2022-10-05T20:30:09.605Z,16.7
2022-10-05T20:33:09.480Z,16.6
2022-10-05T20:36:09.573Z,16.7
2022-10-05T20:39:09.511Z,16.6
2022-10-05T20:42:09.513Z,16.6
2022-10-05T20:45:09.483Z,16.6
2022-10-05T20:48:09.491Z,16.6
2022-10-05T20:51:09.674Z,16.5
2022-10-05T20:54:09.513Z,16.5
2022-10-05T20:57:09.569Z,16.4
2022-10-05T21:00:09.605Z,16.5
2022-10-05T21:03:09.530Z,16.5
2022-10-05T21:06:09.550Z,16.5
2022-10-05T21:09:09.478Z,16.4
2022-10-05T21:12:09.497Z,16.4
2022-10-05T21:15:09.507Z,16.4
2022-10-05T21:18:09.542Z,16.4
2022-10-05T21:21:11.330Z,16.4
2022-10-05T21:24:09.536Z,16.3
2022-10-05T21:27:09.530Z,16.3
2022-10-05T21:30:09.509Z,16.3
2022-10-05T21:33:09.494Z,16.2
2022-10-05T21:36:09.458Z,16.1
2022-10-05T21:39:09.517Z,16.1
2022-10-05T21:42:09.504Z,16.2
2022-10-05T21:45:09.516Z,16.3
2022-10-05T21:48:09.484Z,16.3
2022-10-05T21:51:09.467Z,16.4
2022-10-05T21:54:09.521Z,16.4
2022-10-05T21:57:09.517Z,16.4
2022-10-05T22:00:09.753Z,16.3
2022-10-05T22:03:09.466Z,16.3
2022-10-05T22:06:09.722Z,16.3
2022-10-05T22:09:09.492Z,16.3
2022-10-05T22:12:09.462Z,16.3
2022-10-05T22:15:09.576Z,16.2
2022-10-05T22:18:09.508Z,16.2
2022-10-05T22:21:09.419Z,16.1
2022-10-05T22:24:09.461Z,16.1
2022-10-05T22:27:09.617Z,15.9
2022-10-05T22:30:10.004Z,15.9
2022-10-05T22:33:09.514Z,15.9
2022-10-05T22:36:09.854Z,15.9
2022-10-05T22:39:09.479Z,15.9
2022-10-05T22:42:09.496Z,15.9
2022-10-05T22:45:09.482Z,15.9
2022-10-05T22:48:09.440Z,15.9
2022-10-05T22:51:09.422Z,15.9
2022-10-05T22:54:09.615Z,15.9
2022-10-05T22:57:09.489Z,15.9
2022-10-05T23:00:09.574Z,15.9
2022-10-05T23:03:09.458Z,15.9
2022-10-05T23:06:09.495Z,15.9
2022-10-05T23:09:09.458Z,15.8
2022-10-05T23:12:09.507Z,15.8
2022-10-05T23:15:09.502Z,15.9
2022-10-05T23:18:09.526Z,15.9
2022-10-05T23:21:09.474Z,15.9
2022-10-05T23:24:09.517Z,15.9
2022-10-05T23:27:09.467Z,16
2022-10-05T23:30:09.505Z,16
2022-10-05T23:33:09.509Z,16
2022-10-05T23:36:09.520Z,16.1
2022-10-05T23:39:09.492Z,15.9
2022-10-05T23:42:09.513Z,15.9
2022-10-05T23:45:09.506Z,16
2022-10-05T23:48:09.444Z,16.2
2022-10-05T23:51:09.674Z,16.6
2022-10-05T23:54:09.433Z,16.7
2022-10-05T23:57:09.441Z,16.8
